Time;durP1;ratioP1;P1;durP2;ratioP2;P2;SDS_P1;SDS_P2;PMS_P1;PMS_P2;Temp;Humidity;BMP_temperature;BMP_pressure;BME280_temperature;BME280_humidity;BME280_pressure;Samples;Min_cycle;Max_cycle;Signal;HPM_P1;HPM_P2
2023/09/10 00:02:17;;;;;;;13.07;11.87;;;;;;;;;;5072917;28;20534;-71
2023/09/10 00:04:44;;;;;;;11.37;10.37;;;;;;;;;;5072892;28;20875;-71
2023/09/10 00:07:11;;;;;;;11.30;10.30;;;;;;;;;;5072605;28;20450;-71
2023/09/10 00:09:38;;;;;;;11.40;10.40;;;;;;;;;;5072917;28;20538;-71
2023/09/10 00:12:05;;;;;;;11.60;10.70;;;;;;;;;;5072921;28;20443;-71
2023/09/10 00:14:32;;;;;;;11.17;10.17;;;;;;;;;;5072810;28;20457;-71
2023/09/10 00:17:01;;;;;;;12.27;11.27;;;;;;;;;;5072846;28;20891;-71
2023/09/10 00:19:28;;;;;;;12.90;11.70;;;;;;;;;;5072626;28;20984;-71
2023/09/10 00:21:55;;;;;;;15.03;11.93;;;;;;;;;;5072947;28;20957;-71
2023/09/10 00:24:22;;;;;;;13.67;11.37;;;;;;;;;;5072532;28;20988;-71
2023/09/10 00:26:48;;;;;;;14.70;12.77;;;;;;;;;;5072759;28;20542;-71
2023/09/10 00:29:15;;;;;;;13.70;12.33;;;;;;;;;;5072357;28;20497;-71
2023/09/10 00:31:42;;;;;;;14.23;12.77;;;;;;;;;;5072562;28;20443;-71
2023/09/10 00:34:12;;;;;;;14.13;12.57;;;;;;;;;;5072420;28;20885;-71
2023/09/10 00:36:39;;;;;;;14.67;13.27;;;;;;;;;;5072910;28;20443;-71
2023/09/10 00:39:06;;;;;;;13.80;12.60;;;;;;;;;;5072605;28;20953;-71
2023/09/10 00:41:33;;;;;;;13.97;12.67;;;;;;;;;;5072867;28;20439;-71
2023/09/10 00:44:00;;;;;;;14.37;12.90;;;;;;;;;;5072491;28;20444;-70
2023/09/10 00:46:27;;;;;;;14.40;13.00;;;;;;;;;;5072412;28;20449;-71
2023/09/10 00:48:54;;;;;;;13.43;12.03;;;;;;;;;;5072241;28;20909;-71
2023/09/10 00:51:23;;;;;;;14.30;13.10;;;;;;;;;;5072522;28;20561;-71
2023/09/10 00:53:51;;;;;;;14.80;13.10;;;;;;;;;;5072250;28;20988;-71
2023/09/10 00:56:18;;;;;;;13.87;12.67;;;;;;;;;;5072273;28;20447;-71
2023/09/10 00:58:45;;;;;;;13.27;12.13;;;;;;;;;;5072327;28;20439;-71
2023/09/10 01:01:11;;;;;;;15.13;13.77;;;;;;;;;;5072307;28;20537;-71
2023/09/10 01:03:40;;;;;;;18.43;13.93;;;;;;;;;;5072189;28;20473;-71
2023/09/10 01:06:08;;;;;;;14.83;13.47;;;;;;;;;;5074564;28;20443;-71
2023/09/10 01:08:36;;;;;;;14.50;13.13;;;;;;;;;;5075933;28;20905;-71
2023/09/10 01:11:08;;;;;;;14.90;12.37;;;;;;;;;;5075750;28;20875;-71
2023/09/10 01:13:37;;;;;;;13.47;12.37;;;;;;;;;;5075812;28;20447;-71
2023/09/10 01:16:08;;;;;;;14.00;12.50;;;;;;;;;;5075575;28;20447;-71
2023/09/10 01:18:39;;;;;;;13.47;12.27;;;;;;;;;;5075744;28;20538;-71
2023/09/10 01:21:22;;;;;;;11.57;10.67;;;;;;;;;;5075686;28;20497;-71
2023/09/10 01:23:54;;;;;;;12.83;11.63;;;;;;;;;;5075565;28;20469;-71
2023/09/10 01:26:22;;;;;;;13.03;11.60;;;;;;;;;;5075377;28;20454;-70
2023/09/10 01:28:49;;;;;;;15.10;12.50;;;;;;;;;;5075174;28;20569;-70
2023/09/10 01:31:17;;;;;;;11.10;10.07;;;;;;;;;;5075286;28;20927;-71
2023/09/10 01:33:47;;;;;;;13.57;12.13;;;;;;;;;;5075624;28;20448;-71
2023/09/10 01:36:16;;;;;;;13.60;12.30;;;;;;;;;;5075068;28;20479;-71
2023/09/10 01:38:48;;;;;;;12.60;11.50;;;;;;;;;;5075118;28;20530;-71
2023/09/10 01:41:17;;;;;;;13.70;12.50;;;;;;;;;;5075455;28;20890;-70
2023/09/10 01:43:46;;;;;;;12.83;11.73;;;;;;;;;;5075052;28;20487;-70
2023/09/10 01:46:13;;;;;;;13.27;12.17;;;;;;;;;;5075159;28;20444;-71
2023/09/10 01:48:40;;;;;;;13.67;12.47;;;;;;;;;;5074996;28;20467;-71
2023/09/10 01:51:08;;;;;;;14.60;13.30;;;;;;;;;;5074933;28;20538;-71
2023/09/10 01:53:35;;;;;;;14.70;13.20;;;;;;;;;;5075177;28;20868;-71
2023/09/10 01:56:02;;;;;;;15.00;13.60;;;;;;;;;;5075067;28;20837;-70
2023/09/10 01:58:29;;;;;;;14.10;12.80;;;;;;;;;;5074964;28;20454;-70
2023/09/10 02:00:57;;;;;;;13.90;12.50;;;;;;;;;;5074915;28;20443;-70
2023/09/10 02:03:24;;;;;;;12.20;10.77;;;;;;;;;;5074809;28;20444;-70
2023/09/10 02:05:51;;;;;;;12.87;11.77;;;;;;;;;;5074674;28;20550;-71
2023/09/10 02:08:18;;;;;;;13.97;12.67;;;;;;;;;;5074793;28;20940;-71
2023/09/10 02:10:45;;;;;;;14.30;12.57;;;;;;;;;;5074732;28;20444;-71
2023/09/10 02:13:12;;;;;;;12.57;11.47;;;;;;;;;;5074700;28;20448;-71
2023/09/10 02:15:39;;;;;;;13.10;11.90;;;;;;;;;;5074019;28;21006;-71
2023/09/10 02:18:08;;;;;;;12.77;11.57;;;;;;;;;;5074477;28;20545;-71
2023/09/10 02:20:36;;;;;;;14.27;12.90;;;;;;;;;;5074404;28;20534;-71
2023/09/10 02:23:03;;;;;;;12.87;11.67;;;;;;;;;;5074500;28;20448;-71
2023/09/10 02:25:30;;;;;;;12.77;11.67;;;;;;;;;;5074423;28;20522;-71
2023/09/10 02:27:56;;;;;;;12.70;11.60;;;;;;;;;;5074157;28;20509;-71
2023/09/10 02:30:23;;;;;;;14.43;13.13;;;;;;;;;;5074227;28;20811;-71
2023/09/10 02:32:50;;;;;;;12.97;11.77;;;;;;;;;;5074023;28;20482;-71
2023/09/10 02:35:19;;;;;;;12.77;11.70;;;;;;;;;;5074240;28;20440;-71
2023/09/10 02:37:46;;;;;;;13.77;12.47;;;;;;;;;;5074209;28;20439;-70
2023/09/10 02:40:13;;;;;;;13.43;12.23;;;;;;;;;;5074070;28;20539;-70
2023/09/10 02:42:40;;;;;;;12.67;11.47;;;;;;;;;;5074050;28;20439;-70
2023/09/10 02:45:08;;;;;;;12.90;11.80;;;;;;;;;;5073957;28;20818;-70
2023/09/10 02:47:35;;;;;;;14.20;13.00;;;;;;;;;;5073776;28;20443;-70
2023/09/10 02:50:02;;;;;;;13.80;12.50;;;;;;;;;;5073943;28;20483;-70
2023/09/10 02:52:31;;;;;;;13.10;12.00;;;;;;;;;;5073985;28;20863;-70
2023/09/10 02:54:58;;;;;;;13.17;11.97;;;;;;;;;;5073809;28;20442;-70
2023/09/10 02:57:25;;;;;;;14.13;12.90;;;;;;;;;;5074136;28;20779;-70
2023/09/10 02:59:52;;;;;;;13.67;11.73;;;;;;;;;;5073559;28;20528;-70
2023/09/10 03:02:18;;;;;;;12.87;11.63;;;;;;;;;;5073474;28;20534;-71
2023/09/10 03:04:45;;;;;;;13.97;12.67;;;;;;;;;;5073640;28;20470;-71
2023/09/10 03:07:12;;;;;;;13.00;11.90;;;;;;;;;;5073432;28;20443;-71
2023/09/10 03:09:41;;;;;;;12.90;11.77;;;;;;;;;;5073319;28;20485;-71
2023/09/10 03:12:20;;;;;;;12.37;11.37;;;;;;;;;;5073439;28;20540;-71
2023/09/10 03:14:47;;;;;;;11.93;10.83;;;;;;;;;;5073348;28;20450;-71
2023/09/10 03:17:14;;;;;;;12.40;11.10;;;;;;;;;;5073496;28;20443;-71
2023/09/10 03:19:41;;;;;;;11.87;10.80;;;;;;;;;;5073405;28;20475;-71
2023/09/10 03:22:08;;;;;;;12.87;11.60;;;;;;;;;;5073398;28;20476;-71
2023/09/10 03:24:35;;;;;;;13.20;11.80;;;;;;;;;;5073258;28;20558;-71
2023/09/10 03:27:04;;;;;;;12.70;11.47;;;;;;;;;;5073051;28;20509;-71
2023/09/10 03:29:32;;;;;;;14.07;12.87;;;;;;;;;;5072460;28;20695;-71
2023/09/10 03:31:59;;;;;;;12.37;11.27;;;;;;;;;;5073180;28;20451;-71
2023/09/10 03:34:26;;;;;;;12.27;11.27;;;;;;;;;;5073294;28;20443;-71
2023/09/10 03:36:53;;;;;;;12.23;11.17;;;;;;;;;;5073100;28;20530;-71
2023/09/10 03:39:20;;;;;;;13.43;12.23;;;;;;;;;;5073089;28;20443;-70
2023/09/10 03:41:47;;;;;;;12.60;11.47;;;;;;;;;;5072963;28;20443;-70
2023/09/10 03:44:15;;;;;;;13.50;12.20;;;;;;;;;;5073201;28;20534;-70
2023/09/10 03:46:42;;;;;;;14.20;12.90;;;;;;;;;;5073122;28;20450;-71
2023/09/10 03:49:09;;;;;;;12.97;11.87;;;;;;;;;;5072942;28;20485;-70
2023/09/10 03:51:36;;;;;;;12.13;11.10;;;;;;;;;;5072965;28;20538;-70
2023/09/10 03:54:03;;;;;;;13.67;12.33;;;;;;;;;;5072841;28;21033;-70
2023/09/10 03:56:30;;;;;;;12.63;11.40;;;;;;;;;;5072809;28;20444;-70
2023/09/10 03:58:56;;;;;;;13.10;12.00;;;;;;;;;;5073036;28;20527;-70
2023/09/10 04:01:25;;;;;;;12.20;11.10;;;;;;;;;;5073045;28;20598;-71
2023/09/10 04:03:52;;;;;;;13.33;12.13;;;;;;;;;;5072855;28;20462;-71
2023/09/10 04:06:19;;;;;;;13.97;12.77;;;;;;;;;;5072860;28;20535;-70
2023/09/10 04:08:46;;;;;;;11.40;10.47;;;;;;;;;;5072607;28;20996;-70
2023/09/10 04:11:13;;;;;;;12.90;11.67;;;;;;;;;;5072990;28;20538;-70
2023/09/10 04:13:39;;;;;;;12.80;11.70;;;;;;;;;;5072925;28;20451;-70
2023/09/10 04:16:06;;;;;;;14.27;12.97;;;;;;;;;;5072653;28;21017;-70
2023/09/10 04:18:35;;;;;;;14.80;13.50;;;;;;;;;;5072741;28;20542;-70
2023/09/10 04:21:04;;;;;;;13.83;12.53;;;;;;;;;;5072613;28;20483;-70
2023/09/10 04:23:31;;;;;;;12.40;11.30;;;;;;;;;;5072523;28;20454;-70
2023/09/10 04:25:58;;;;;;;14.20;12.90;;;;;;;;;;5072741;28;20451;-70
2023/09/10 04:28:25;;;;;;;13.43;12.13;;;;;;;;;;5072503;28;20486;-70
2023/09/10 04:30:52;;;;;;;13.40;12.20;;;;;;;;;;5072601;28;20486;-70
2023/09/10 04:33:19;;;;;;;15.53;14.07;;;;;;;;;;5072547;28;20814;-70
2023/09/10 04:35:50;;;;;;;13.83;12.57;;;;;;;;;;5072512;28;20447;-70
2023/09/10 04:38:17;;;;;;;14.50;13.10;;;;;;;;;;5072792;28;20478;-70
2023/09/10 04:40:44;;;;;;;13.40;12.00;;;;;;;;;;5075902;28;20846;-70
2023/09/10 04:43:11;;;;;;;12.63;11.43;;;;;;;;;;5076417;28;20440;-70
2023/09/10 04:45:38;;;;;;;13.53;12.23;;;;;;;;;;5076280;28;20534;-70
2023/09/10 04:48:06;;;;;;;13.90;12.70;;;;;;;;;;5076249;28;20443;-70
2023/09/10 04:50:32;;;;;;;12.50;11.27;;;;;;;;;;5075955;28;20501;-70
2023/09/10 04:53:01;;;;;;;14.90;12.70;;;;;;;;;;5076262;28;20875;-70
2023/09/10 04:55:28;;;;;;;13.23;12.13;;;;;;;;;;5076094;28;20879;-70
2023/09/10 04:57:55;;;;;;;13.83;12.10;;;;;;;;;;5076032;28;20527;-70
2023/09/10 05:00:22;;;;;;;13.50;12.30;;;;;;;;;;5075813;28;20958;-70
2023/09/10 05:02:49;;;;;;;13.27;12.07;;;;;;;;;;5075821;28;20881;-70
2023/09/10 05:05:16;;;;;;;13.63;12.30;;;;;;;;;;5076045;28;20469;-70
2023/09/10 05:07:43;;;;;;;13.27;12.00;;;;;;;;;;5075941;28;20550;-70
2023/09/10 05:10:12;;;;;;;13.63;12.43;;;;;;;;;;5075951;28;20479;-70
2023/09/10 05:12:39;;;;;;;13.50;12.23;;;;;;;;;;5075767;28;20534;-70
2023/09/10 05:15:06;;;;;;;13.27;12.10;;;;;;;;;;5075730;28;20442;-70
2023/09/10 05:17:33;;;;;;;13.27;11.87;;;;;;;;;;5075559;28;20443;-70
2023/09/10 05:20:01;;;;;;;13.57;12.37;;;;;;;;;;5075777;28;20450;-70
2023/09/10 05:22:28;;;;;;;13.37;12.13;;;;;;;;;;5075732;28;20886;-70
2023/09/10 05:24:55;;;;;;;13.93;12.70;;;;;;;;;;5075625;28;20443;-70
2023/09/10 05:27:23;;;;;;;14.60;13.20;;;;;;;;;;5075446;28;20450;-70
2023/09/10 05:29:50;;;;;;;14.60;13.30;;;;;;;;;;5075386;28;20482;-70
2023/09/10 05:32:17;;;;;;;14.03;12.83;;;;;;;;;;5075327;28;20542;-70
2023/09/10 05:34:44;;;;;;;12.57;11.47;;;;;;;;;;5075458;28;20534;-70
2023/09/10 05:37:11;;;;;;;13.63;12.40;;;;;;;;;;5075392;28;20538;-70
2023/09/10 05:39:38;;;;;;;14.30;13.20;;;;;;;;;;5075294;28;20443;-70
2023/09/10 05:42:05;;;;;;;14.30;12.90;;;;;;;;;;5075324;28;20958;-70
2023/09/10 05:44:33;;;;;;;13.97;12.67;;;;;;;;;;5075025;28;20875;-70
2023/09/10 05:47:00;;;;;;;13.03;12.03;;;;;;;;;;5075263;28;20450;-70
2023/09/10 05:49:27;;;;;;;14.20;12.80;;;;;;;;;;5075103;28;20467;-71
2023/09/10 05:51:54;;;;;;;12.90;11.80;;;;;;;;;;5074294;28;20444;-70
2023/09/10 05:54:21;;;;;;;12.60;11.60;;;;;;;;;;5075017;28;20867;-70
2023/09/10 05:56:48;;;;;;;13.03;11.83;;;;;;;;;;5074985;28;20443;-70
2023/09/10 05:59:15;;;;;;;13.13;11.83;;;;;;;;;;5074811;28;20440;-70
2023/09/10 06:01:43;;;;;;;12.30;11.30;;;;;;;;;;5074939;28;20809;-70
2023/09/10 06:04:10;;;;;;;13.80;12.60;;;;;;;;;;5074884;28;20444;-70
2023/09/10 06:06:37;;;;;;;13.43;12.23;;;;;;;;;;5074805;28;20439;-70
2023/09/10 06:09:04;;;;;;;14.37;13.00;;;;;;;;;;5074652;28;20542;-71
2023/09/10 06:11:31;;;;;;;14.17;12.97;;;;;;;;;;5074645;28;20535;-70
2023/09/10 06:13:58;;;;;;;12.40;11.33;;;;;;;;;;5074430;28;20542;-70
2023/09/10 06:16:25;;;;;;;13.13;12.00;;;;;;;;;;5074601;28;20546;-71
2023/09/10 06:18:53;;;;;;;13.60;12.30;;;;;;;;;;5074598;28;21014;-70
2023/09/10 06:21:20;;;;;;;13.30;12.10;;;;;;;;;;5074447;28;20454;-71
2023/09/10 06:23:47;;;;;;;11.80;10.90;;;;;;;;;;5074383;28;20534;-71
2023/09/10 06:26:14;;;;;;;14.57;13.30;;;;;;;;;;5074181;28;20973;-71
2023/09/10 06:28:41;;;;;;;14.40;13.10;;;;;;;;;;5074110;28;20471;-71
2023/09/10 06:31:09;;;;;;;15.17;13.80;;;;;;;;;;5074285;28;20574;-70
2023/09/10 06:33:35;;;;;;;13.33;12.20;;;;;;;;;;5074138;28;20602;-70
2023/09/10 06:36:04;;;;;;;12.93;11.83;;;;;;;;;;5074137;28;20444;-70
2023/09/10 06:38:31;;;;;;;13.43;12.20;;;;;;;;;;5074118;28;20534;-71
2023/09/10 06:40:58;;;;;;;13.60;12.40;;;;;;;;;;5073980;28;20531;-71
2023/09/10 06:43:25;;;;;;;13.23;12.10;;;;;;;;;;5074165;28;20538;-71
2023/09/10 06:45:52;;;;;;;13.60;12.37;;;;;;;;;;5073822;28;20954;-71
2023/09/10 06:48:19;;;;;;;13.83;12.60;;;;;;;;;;5073867;28;20872;-71
2023/09/10 06:50:46;;;;;;;14.87;13.50;;;;;;;;;;5073789;28;20476;-71
2023/09/10 06:53:14;;;;;;;14.93;13.63;;;;;;;;;;5073777;28;20539;-71
2023/09/10 06:55:41;;;;;;;16.07;14.60;;;;;;;;;;5073934;28;20569;-71
2023/09/10 06:58:07;;;;;;;17.10;15.47;;;;;;;;;;5073823;28;20538;-71
2023/09/10 07:00:35;;;;;;;15.03;13.70;;;;;;;;;;5073763;28;20483;-71
2023/09/10 07:03:05;;;;;;;14.50;13.17;;;;;;;;;;5073694;28;20957;-71
2023/09/10 07:05:32;;;;;;;15.10;11.60;;;;;;;;;;5073599;28;20961;-71
2023/09/10 07:07:59;;;;;;;13.73;12.63;;;;;;;;;;5073510;28;20554;-71
2023/09/10 07:10:28;;;;;;;11.87;10.93;;;;;;;;;;5073539;28;20490;-71
2023/09/10 07:12:54;;;;;;;13.20;11.90;;;;;;;;;;5073299;28;21017;-71
2023/09/10 07:15:21;;;;;;;13.07;11.97;;;;;;;;;;5073545;28;20530;-71
2023/09/10 07:17:48;;;;;;;13.30;12.07;;;;;;;;;;5073424;28;20454;-71
2023/09/10 07:20:16;;;;;;;11.60;10.63;;;;;;;;;;5073381;28;20530;-71
2023/09/10 07:22:43;;;;;;;12.07;11.07;;;;;;;;;;5073239;28;20459;-71
2023/09/10 07:25:10;;;;;;;12.57;11.40;;;;;;;;;;5073363;28;20450;-71
2023/09/10 07:27:38;;;;;;;12.13;11.20;;;;;;;;;;5073086;28;20483;-72
2023/09/10 07:30:06;;;;;;;11.50;10.60;;;;;;;;;;5073053;28;20497;-71
2023/09/10 07:32:33;;;;;;;11.07;10.20;;;;;;;;;;5073235;28;20462;-72
2023/09/10 07:35:00;;;;;;;11.77;10.60;;;;;;;;;;5073062;28;20538;-71
2023/09/10 07:37:27;;;;;;;11.83;10.80;;;;;;;;;;5073267;28;20543;-71
2023/09/10 07:39:54;;;;;;;11.00;10.20;;;;;;;;;;5073198;28;20573;-72
2023/09/10 07:42:21;;;;;;;12.10;11.20;;;;;;;;;;5073131;28;20447;-72
2023/09/10 07:44:49;;;;;;;10.50;9.70;;;;;;;;;;5073105;28;20479;-71
2023/09/10 07:47:16;;;;;;;12.10;11.10;;;;;;;;;;5073005;28;20535;-71
2023/09/10 07:49:43;;;;;;;11.13;10.23;;;;;;;;;;5072825;28;20535;-71
2023/09/10 07:52:10;;;;;;;10.20;9.47;;;;;;;;;;5072976;28;20450;-71
2023/09/10 07:54:37;;;;;;;10.23;9.30;;;;;;;;;;5072980;28;20450;-71
2023/09/10 07:57:05;;;;;;;10.77;9.87;;;;;;;;;;5072943;28;20450;-71
2023/09/10 07:59:31;;;;;;;11.17;10.07;;;;;;;;;;5072901;28;20534;-71
2023/09/10 08:02:01;;;;;;;13.87;10.30;;;;;;;;;;5072729;28;20585;-71
2023/09/10 08:04:28;;;;;;;10.37;9.47;;;;;;;;;;5072748;28;20443;-72
2023/09/10 08:06:56;;;;;;;9.90;9.00;;;;;;;;;;5072944;28;20444;-71
2023/09/10 08:09:23;;;;;;;9.90;9.00;;;;;;;;;;5072947;28;20549;-71
2023/09/10 08:11:50;;;;;;;9.43;8.77;;;;;;;;;;5072674;28;20566;-71
2023/09/10 08:14:17;;;;;;;10.80;9.80;;;;;;;;;;5073840;28;20443;-71
2023/09/10 08:16:44;;;;;;;11.27;10.37;;;;;;;;;;5076729;28;20447;-71
2023/09/10 08:19:12;;;;;;;11.83;10.83;;;;;;;;;;5076921;28;20447;-71
2023/09/10 08:21:40;;;;;;;9.07;8.40;;;;;;;;;;5076811;28;20901;-71
2023/09/10 08:24:07;;;;;;;10.37;9.47;;;;;;;;;;5076549;28;20443;-72
2023/09/10 08:26:34;;;;;;;12.03;10.13;;;;;;;;;;5076631;28;20538;-71
2023/09/10 08:29:01;;;;;;;9.70;9.00;;;;;;;;;;5076137;28;21080;-72
2023/09/10 08:31:28;;;;;;;11.00;10.07;;;;;;;;;;5076291;28;20489;-72
2023/09/10 08:33:55;;;;;;;11.73;10.83;;;;;;;;;;5076620;28;20537;-72
2023/09/10 08:36:23;;;;;;;11.73;10.50;;;;;;;;;;5076497;28;20450;-72
2023/09/10 08:38:50;;;;;;;10.70;9.80;;;;;;;;;;5076287;28;20443;-72
2023/09/10 08:41:21;;;;;;;9.93;9.13;;;;;;;;;;5076241;28;20443;-72
2023/09/10 08:43:52;;;;;;;10.27;9.30;;;;;;;;;;5076146;28;21048;-72
2023/09/10 08:46:23;;;;;;;10.63;9.70;;;;;;;;;;5076364;28;20567;-72
2023/09/10 08:48:52;;;;;;;12.27;10.97;;;;;;;;;;5076247;28;20810;-72
2023/09/10 08:51:19;;;;;;;10.60;9.53;;;;;;;;;;5076065;28;20483;-72
2023/09/10 08:53:48;;;;;;;10.90;10.00;;;;;;;;;;5075991;28;20944;-72
2023/09/10 08:56:16;;;;;;;10.30;9.50;;;;;;;;;;5075826;28;20538;-72
2023/09/10 08:58:43;;;;;;;11.30;10.30;;;;;;;;;;5076146;28;20446;-72
2023/09/10 09:01:10;;;;;;;11.40;10.23;;;;;;;;;;5076041;28;20577;-73
2023/09/10 09:03:37;;;;;;;11.10;10.20;;;;;;;;;;5075869;28;20526;-72
2023/09/10 09:06:05;;;;;;;10.73;9.80;;;;;;;;;;5075647;28;20439;-72
2023/09/10 09:08:32;;;;;;;11.30;10.50;;;;;;;;;;5075747;28;20443;-72
2023/09/10 09:11:03;;;;;;;12.43;11.33;;;;;;;;;;5075500;28;20566;-72
2023/09/10 09:13:32;;;;;;;10.60;9.70;;;;;;;;;;5075865;28;20447;-72
2023/09/10 09:16:00;;;;;;;11.60;10.70;;;;;;;;;;5075799;28;20863;-72
2023/09/10 09:18:28;;;;;;;10.10;9.10;;;;;;;;;;5075536;28;20487;-72
2023/09/10 09:20:56;;;;;;;10.20;9.40;;;;;;;;;;5075600;28;20888;-72
2023/09/10 09:23:26;;;;;;;9.00;8.40;;;;;;;;;;5075422;28;20454;-72
2023/09/10 09:25:53;;;;;;;10.10;9.33;;;;;;;;;;5074384;28;20451;-72
2023/09/10 09:28:22;;;;;;;9.10;8.50;;;;;;;;;;5075271;28;20467;-72
2023/09/10 09:30:49;;;;;;;9.87;9.07;;;;;;;;;;5075418;28;20471;-72
2023/09/10 09:33:16;;;;;;;7.37;6.63;;;;;;;;;;5075478;28;20500;-72
2023/09/10 09:35:43;;;;;;;6.67;6.17;;;;;;;;;;5075237;28;20530;-72
2023/09/10 09:38:10;;;;;;;6.90;6.20;;;;;;;;;;5075397;28;20444;-72
2023/09/10 09:40:37;;;;;;;9.00;5.80;;;;;;;;;;5075412;28;20504;-72
2023/09/10 09:43:07;;;;;;;5.50;5.10;;;;;;;;;;5075274;28;20447;-72
2023/09/10 09:45:36;;;;;;;6.27;5.73;;;;;;;;;;5075133;28;20479;-72
2023/09/10 09:48:03;;;;;;;9.03;5.93;;;;;;;;;;5075108;28;20852;-72
2023/09/10 09:50:30;;;;;;;5.57;5.07;;;;;;;;;;5074763;28;20475;-72
2023/09/10 09:52:57;;;;;;;6.20;5.70;;;;;;;;;;5075117;28;21002;-72
2023/09/10 09:55:24;;;;;;;5.63;5.23;;;;;;;;;;5075072;28;20531;-72
2023/09/10 09:57:51;;;;;;;5.90;5.40;;;;;;;;;;5074978;28;20447;-72
2023/09/10 10:00:18;;;;;;;5.63;5.20;;;;;;;;;;5074777;28;20450;-72
2023/09/10 10:02:47;;;;;;;6.87;6.17;;;;;;;;;;5074731;28;20531;-72
2023/09/10 10:05:14;;;;;;;6.20;5.80;;;;;;;;;;5074676;28;20444;-72
2023/09/10 10:07:41;;;;;;;6.93;6.33;;;;;;;;;;5074804;28;20448;-72
2023/09/10 10:10:09;;;;;;;6.40;5.73;;;;;;;;;;5074689;28;20866;-72
2023/09/10 10:12:37;;;;;;;5.90;5.50;;;;;;;;;;5074529;28;20490;-72
2023/09/10 10:15:04;;;;;;;6.87;6.17;;;;;;;;;;5074634;28;20447;-72
2023/09/10 10:17:31;;;;;;;7.63;6.20;;;;;;;;;;5074435;28;20538;-72
2023/09/10 10:20:00;;;;;;;6.53;6.03;;;;;;;;;;5074545;28;20538;-71
2023/09/10 10:22:27;;;;;;;6.00;5.40;;;;;;;;;;5074385;28;20543;-72
2023/09/10 10:24:54;;;;;;;5.70;5.23;;;;;;;;;;5074224;28;20477;-72
2023/09/10 10:27:22;;;;;;;6.00;5.40;;;;;;;;;;5074160;28;20447;-72
2023/09/10 10:29:49;;;;;;;6.47;5.90;;;;;;;;;;5074118;28;20448;-72
2023/09/10 10:32:21;;;;;;;6.17;5.77;;;;;;;;;;5073924;28;20570;-72
2023/09/10 10:34:52;;;;;;;7.50;5.57;;;;;;;;;;5074490;28;20538;-72
2023/09/10 10:37:24;;;;;;;5.70;5.13;;;;;;;;;;5073865;28;20532;-72
2023/09/10 10:39:54;;;;;;;6.37;5.00;;;;;;;;;;5074106;28;20551;-72
2023/09/10 10:42:26;;;;;;;5.20;4.70;;;;;;;;;;5073863;28;20451;-72
2023/09/10 10:44:53;;;;;;;4.90;4.60;;;;;;;;;;5074140;28;20474;-72
2023/09/10 10:47:23;;;;;;;4.70;4.40;;;;;;;;;;5073992;28;20530;-72
2023/09/10 10:49:52;;;;;;;4.60;4.20;;;;;;;;;;5073885;28;20443;-72
2023/09/10 10:52:22;;;;;;;5.33;4.83;;;;;;;;;;5073711;28;20483;-72
2023/09/10 10:54:49;;;;;;;6.83;4.47;;;;;;;;;;5073681;28;20443;-72
2023/09/10 10:57:16;;;;;;;4.50;4.20;;;;;;;;;;5073509;28;20475;-72
2023/09/10 10:59:43;;;;;;;4.40;4.10;;;;;;;;;;5073813;28;20439;-72
2023/09/10 11:02:23;;;;;;;4.50;4.20;;;;;;;;;;5073563;28;20884;-72
2023/09/10 11:05:00;;;;;;;4.57;4.10;;;;;;;;;;5073620;28;20505;-72
2023/09/10 11:07:29;;;;;;;5.03;4.70;;;;;;;;;;5073469;28;20448;-72
2023/09/10 11:09:57;;;;;;;4.37;4.07;;;;;;;;;;5073683;28;20454;-72
2023/09/10 11:12:24;;;;;;;5.60;5.20;;;;;;;;;;5073511;28;20641;-72
2023/09/10 11:15:12;;;;;;;5.17;4.67;;;;;;;;;;5073524;28;20452;-72
2023/09/10 11:17:39;;;;;;;5.00;4.70;;;;;;;;;;5073344;28;20512;-72
2023/09/10 11:20:06;;;;;;;4.90;4.60;;;;;;;;;;5073311;28;20629;-73
2023/09/10 11:22:52;;;;;;;6.70;4.50;;;;;;;;;;5073123;28;20510;-72
2023/09/10 11:25:20;;;;;;;4.83;4.43;;;;;;;;;;5073351;28;20450;-72
2023/09/10 11:27:47;;;;;;;4.40;4.10;;;;;;;;;;5072987;28;20558;-73
2023/09/10 11:30:15;;;;;;;8.00;5.27;;;;;;;;;;5073217;28;20952;-73
2023/09/10 11:32:42;;;;;;;4.67;4.30;;;;;;;;;;5072989;28;20914;-72
2023/09/10 11:35:25;;;;;;;4.53;4.13;;;;;;;;;;5073295;28;20799;-73
2023/09/10 11:37:53;;;;;;;4.97;4.57;;;;;;;;;;5073066;28;20447;-72
2023/09/10 11:40:22;;;;;;;6.97;4.87;;;;;;;;;;5072989;28;20530;-73
2023/09/10 11:42:49;;;;;;;4.70;4.40;;;;;;;;;;5072767;28;20451;-72
2023/09/10 11:45:17;;;;;;;4.70;4.40;;;;;;;;;;5073131;28;20547;-73
2023/09/10 11:47:45;;;;;;;5.13;4.80;;;;;;;;;;5073184;28;20490;-73
2023/09/10 11:50:12;;;;;;;5.70;4.70;;;;;;;;;;5072356;28;20444;-73
2023/09/10 11:52:41;;;;;;;5.10;4.60;;;;;;;;;;5072912;28;20487;-73
2023/09/10 11:55:09;;;;;;;5.43;5.03;;;;;;;;;;5072841;28;20530;-72
2023/09/10 11:57:38;;;;;;;4.90;4.60;;;;;;;;;;5072778;28;20463;-72
2023/09/10 12:00:06;;;;;;;5.13;4.70;;;;;;;;;;5072780;28;20454;-73
2023/09/10 12:02:33;;;;;;;5.10;4.80;;;;;;;;;;5072950;28;20497;-73
2023/09/10 12:05:02;;;;;;;4.40;4.10;;;;;;;;;;5072722;28;20530;-72
2023/09/10 12:07:29;;;;;;;4.93;4.53;;;;;;;;;;5072745;28;20966;-73
2023/09/10 12:09:55;;;;;;;5.27;4.80;;;;;;;;;;5072722;28;20493;-72
2023/09/10 12:12:25;;;;;;;4.80;4.30;;;;;;;;;;5072643;28;20908;-73
2023/09/10 12:14:54;;;;;;;5.40;5.00;;;;;;;;;;5072612;28;20919;-73
2023/09/10 12:17:21;;;;;;;6.57;5.10;;;;;;;;;;5072632;28;20538;-72
2023/09/10 12:19:48;;;;;;;4.53;4.20;;;;;;;;;;5072456;28;21000;-73
2023/09/10 12:22:18;;;;;;;8.10;4.83;;;;;;;;;;5072626;28;20538;-73
2023/09/10 12:24:45;;;;;;;4.50;4.30;;;;;;;;;;5072537;28;20473;-73
2023/09/10 12:27:13;;;;;;;4.90;4.53;;;;;;;;;;5072754;28;20451;-73
2023/09/10 12:29:40;;;;;;;4.47;4.17;;;;;;;;;;5072312;28;20558;-73
2023/09/10 12:32:09;;;;;;;7.37;5.10;;;;;;;;;;5072482;28;20577;-73
2023/09/10 12:34:36;;;;;;;5.53;4.83;;;;;;;;;;5072302;28;21005;-73
2023/09/10 12:37:03;;;;;;;7.27;6.20;;;;;;;;;;5072399;28;20439;-73
2023/09/10 12:39:33;;;;;;;6.13;5.73;;;;;;;;;;5072607;28;20795;-73
2023/09/10 12:42:01;;;;;;;5.10;4.80;;;;;;;;;;5072573;28;20538;-73
2023/09/10 12:44:29;;;;;;;5.87;5.40;;;;;;;;;;5072553;28;20509;-73
2023/09/10 12:46:55;;;;;;;5.73;5.33;;;;;;;;;;5072388;28;20458;-73
2023/09/10 12:49:24;;;;;;;5.57;5.17;;;;;;;;;;5072401;28;20449;-74
2023/09/10 12:51:51;;;;;;;5.27;4.80;;;;;;;;;;5072133;28;20471;-73
2023/09/10 12:54:18;;;;;;;5.90;5.40;;;;;;;;;;5072191;28;20531;-73
2023/09/10 12:56:49;;;;;;;6.00;5.53;;;;;;;;;;5072529;28;20443;-73
2023/09/10 12:59:16;;;;;;;5.80;5.40;;;;;;;;;;5072341;28;20447;-73
2023/09/10 13:01:43;;;;;;;6.47;6.03;;;;;;;;;;5075329;28;20534;-73
2023/09/10 13:04:09;;;;;;;5.30;5.00;;;;;;;;;;5075804;28;20447;-73
2023/09/10 13:06:38;;;;;;;6.17;5.40;;;;;;;;;;5075960;28;20443;-73
2023/09/10 13:09:05;;;;;;;5.70;5.17;;;;;;;;;;5075819;28;20479;-73
2023/09/10 13:11:33;;;;;;;5.20;4.80;;;;;;;;;;5075776;28;20443;-73
2023/09/10 13:14:01;;;;;;;5.63;5.23;;;;;;;;;;5075724;28;20443;-74
2023/09/10 13:16:28;;;;;;;5.03;4.70;;;;;;;;;;5075641;28;20470;-74
2023/09/10 13:18:55;;;;;;;5.73;5.23;;;;;;;;;;5075932;28;20930;-73
2023/09/10 13:21:22;;;;;;;5.90;5.40;;;;;;;;;;5075520;28;20443;-73
2023/09/10 13:23:50;;;;;;;5.13;4.80;;;;;;;;;;5075667;28;20534;-73
2023/09/10 13:26:17;;;;;;;6.57;5.40;;;;;;;;;;5075604;28;20539;-74
2023/09/10 13:28:44;;;;;;;5.80;5.40;;;;;;;;;;5075260;28;20467;-74
2023/09/10 13:31:11;;;;;;;5.80;5.30;;;;;;;;;;5075314;28;20918;-73
2023/09/10 13:33:37;;;;;;;5.37;4.97;;;;;;;;;;5075177;28;20475;-74
2023/09/10 13:36:04;;;;;;;5.63;5.23;;;;;;;;;;5075408;28;20536;-74
2023/09/10 13:38:31;;;;;;;6.20;5.60;;;;;;;;;;5075419;28;20534;-74
2023/09/10 13:41:00;;;;;;;6.10;5.50;;;;;;;;;;5075212;28;20443;-74
2023/09/10 13:43:27;;;;;;;5.70;5.30;;;;;;;;;;5075188;28;20533;-74
2023/09/10 13:45:54;;;;;;;5.27;4.87;;;;;;;;;;5075039;28;20435;-73
2023/09/10 13:48:20;;;;;;;5.80;5.40;;;;;;;;;;5075206;28;20523;-74
2023/09/10 13:50:47;;;;;;;6.10;5.20;;;;;;;;;;5074936;28;21001;-73
2023/09/10 13:53:14;;;;;;;6.10;5.43;;;;;;;;;;5074942;28;20485;-74
2023/09/10 13:55:41;;;;;;;6.07;5.67;;;;;;;;;;5074954;28;20444;-74
2023/09/10 13:58:09;;;;;;;5.57;5.17;;;;;;;;;;5074885;28;20866;-74
2023/09/10 14:00:36;;;;;;;5.50;5.00;;;;;;;;;;5074884;28;20607;-74
2023/09/10 14:03:03;;;;;;;4.57;4.27;;;;;;;;;;5074980;28;20450;-73
2023/09/10 14:05:30;;;;;;;6.23;5.63;;;;;;;;;;5074878;28;20543;-74
2023/09/10 14:07:57;;;;;;;8.73;5.03;;;;;;;;;;5074717;28;20449;-74
2023/09/10 14:10:24;;;;;;;5.67;5.17;;;;;;;;;;5074710;28;20457;-74
2023/09/10 14:12:52;;;;;;;5.77;5.27;;;;;;;;;;5073817;28;20507;-73
2023/09/10 14:15:20;;;;;;;5.70;5.30;;;;;;;;;;5074503;28;20447;-74
2023/09/10 14:17:47;;;;;;;5.63;5.17;;;;;;;;;;5074655;28;20475;-74
2023/09/10 14:20:14;;;;;;;5.47;5.07;;;;;;;;;;5074508;28;20538;-74
2023/09/10 14:22:41;;;;;;;6.53;6.00;;;;;;;;;;5074482;28;20458;-74
2023/09/10 14:25:12;;;;;;;5.80;5.30;;;;;;;;;;5074420;28;20534;-74
2023/09/10 14:27:39;;;;;;;5.10;4.80;;;;;;;;;;5073921;28;20479;-74
2023/09/10 14:30:07;;;;;;;5.03;4.63;;;;;;;;;;5074464;28;20539;-73